Time;durP1;ratioP1;P1;durP2;ratioP2;P2;SDS_P1;SDS_P2;PMS_P1;PMS_P2;Temp;Humidity;BMP_temperature;BMP_pressure;BME280_temperature;BME280_humidity;BME280_pressure;Samples;Min_cycle;Max_cycle;Signal;HPM_P1;HPM_P2
2023/07/13 00:01:49;;;;;;;25.45;11.02;;;;;;;23.10;72.37;95107.66;5053618;28;20167;-82
2023/07/13 00:04:17;;;;;;;21.50;10.82;;;;;;;22.89;72.73;95082.88;5035338;28;20712;-82
2023/07/13 00:06:44;;;;;;;27.38;11.48;;;;;;;22.99;72.76;95095.41;5053187;28;20213;-82
2023/07/13 00:09:12;;;;;;;26.55;11.32;;;;;;;22.78;72.92;95075.19;5053526;28;20559;-82
2023/07/13 00:11:38;;;;;;;33.17;12.98;;;;;;;22.94;73.29;95101.63;5053048;28;20198;-82
2023/07/13 00:14:03;;;;;;;21.63;11.27;;;;;;;22.73;73.62;95075.19;5035171;28;20175;-82
2023/07/13 00:16:29;;;;;;;18.80;10.60;;;;;;;22.91;73.60;95099.50;5052957;28;20205;-82
2023/07/13 00:18:54;;;;;;;25.90;12.90;;;;;;;22.87;72.36;95093.09;5053194;28;20167;-82
2023/07/13 00:21:19;;;;;;;25.00;12.38;;;;;;;22.85;73.54;95095.25;5035074;28;20167;-82
2023/07/13 00:23:45;;;;;;;24.67;11.45;;;;;;;22.82;74.18;95090.47;5052837;28;20561;-82
2023/07/13 00:26:12;;;;;;;26.27;12.00;;;;;;;22.77;74.71;95089.69;5052954;28;20195;-82
2023/07/13 00:28:39;;;;;;;28.08;12.60;;;;;;;22.75;74.18;95075.72;5034733;28;21176;-82
2023/07/13 00:31:05;;;;;;;20.85;12.07;;;;;;;22.77;73.84;95087.81;5033607;28;20198;-82
2023/07/13 00:33:31;;;;;;;27.27;13.98;;;;;;;22.74;74.03;95087.56;5052880;28;20171;-82
2023/07/13 00:35:57;;;;;;;10.50;6.70;;;;;;;22.70;72.02;95086.50;5052851;28;20654;-80
2023/07/13 00:38:23;;;;;;;11.30;6.95;;;;;;;22.66;71.91;95086.25;5052806;28;20683;-82
2023/07/13 00:40:49;;;;;;;15.35;6.90;;;;;;;22.69;72.23;95087.56;5052619;28;20221;-83
2023/07/13 00:43:20;;;;;;;7.35;5.10;;;;;;;22.70;71.80;95089.19;5052508;28;20167;-83
2023/07/13 00:45:46;;;;;;;13.13;6.90;;;;;;;22.71;72.24;95094.28;5033354;28;22570;-83
2023/07/13 00:48:15;;;;;;;13.48;7.22;;;;;;;22.67;71.85;95092.41;5052690;28;20218;-84
2023/07/13 00:50:41;;;;;;;14.25;8.18;;;;;;;22.61;72.84;95077.44;5052525;28;20180;-83
2023/07/13 00:53:08;;;;;;;13.43;7.22;;;;;;;22.51;73.00;95067.59;5052529;28;20253;-83
2023/07/13 00:55:34;;;;;;;13.35;7.25;;;;;;;22.64;73.02;95085.75;5052312;28;20194;-83
2023/07/13 00:58:02;;;;;;;13.88;7.00;;;;;;;22.63;72.86;95081.44;5051380;28;20613;-84
2023/07/13 01:00:29;;;;;;;10.77;7.20;;;;;;;22.59;72.80;95067.78;5052491;28;20661;-84
2023/07/13 01:02:55;;;;;;;14.57;7.25;;;;;;;22.61;72.80;95083.59;5051160;28;20171;-83
2023/07/13 01:05:22;;;;;;;14.25;8.15;;;;;;;22.57;73.86;95079.91;5052419;28;20540;-84
2023/07/13 01:07:51;;;;;;;13.40;6.70;;;;;;;22.52;73.94;95082.59;5033900;28;20648;-84
2023/07/13 01:10:22;;;;;;;12.32;7.22;;;;;;;22.50;74.23;95079.38;5052172;28;21039;-84
2023/07/13 01:12:48;;;;;;;10.65;6.25;;;;;;;22.26;74.18;95057.03;5051161;28;20178;-83
2023/07/13 01:15:36;;;;;;;14.60;6.88;;;;;;;22.40;74.76;95088.31;5033934;28;20216;-84
2023/07/13 01:18:02;;;;;;;12.40;7.00;;;;;;;22.33;74.31;95081.66;5032541;28;20170;-84
2023/07/13 01:20:28;;;;;;;13.27;6.13;;;;;;;22.15;74.32;95049.03;5051853;28;20183;-84
2023/07/13 01:22:53;;;;;;;12.57;5.97;;;;;;;22.23;74.41;95061.06;5033788;28;20182;-84
2023/07/13 01:25:20;;;;;;;17.52;6.20;;;;;;;22.10;74.34;95042.94;5051927;28;20908;-84
2023/07/13 01:27:45;;;;;;;9.43;6.22;;;;;;;22.31;75.14;95075.78;5051681;28;20237;-83
2023/07/13 01:30:11;;;;;;;9.95;6.55;;;;;;;22.00;75.30;95025.03;5051703;28;20190;-83
2023/07/13 01:32:36;;;;;;;11.85;6.90;;;;;;;22.19;75.49;95060.03;5051669;28;20185;-83
2023/07/13 01:35:02;;;;;;;14.20;6.47;;;;;;;22.20;75.97;95075.06;5052077;28;20187;-83
2023/07/13 01:37:35;;;;;;;7.95;5.68;;;;;;;22.11;76.13;95063.31;5033737;28;20175;-83
2023/07/13 01:40:02;;;;;;;10.27;5.75;;;;;;;22.02;75.88;95047.00;5051478;28;20226;-83
2023/07/13 01:42:28;;;;;;;11.50;6.35;;;;;;;21.82;76.47;95017.59;5051622;28;20178;-83
2023/07/13 01:44:53;;;;;;;11.43;6.85;;;;;;;21.72;76.48;94994.31;5051483;28;20175;-83
2023/07/13 01:47:19;;;;;;;17.45;6.45;;;;;;;22.03;75.81;95048.59;5051280;28;20203;-83
2023/07/13 01:49:46;;;;;;;7.53;5.70;;;;;;;22.06;75.87;95061.44;5051546;28;20164;-84
2023/07/13 01:52:11;;;;;;;9.93;7.00;;;;;;;21.74;76.52;95021.66;5051559;28;20658;-83
2023/07/13 01:54:36;;;;;;;11.20;6.18;;;;;;;21.78;77.35;95038.00;5050665;28;20182;-83
2023/07/13 01:57:03;;;;;;;9.13;6.00;;;;;;;21.72;77.26;95031.03;5051370;28;20173;-83
2023/07/13 01:59:29;;;;;;;10.35;5.93;;;;;;;21.78;77.07;95035.31;5051293;28;20190;-84
2023/07/13 02:01:54;;;;;;;12.70;6.75;;;;;;;21.87;76.42;95055.09;5051226;28;20639;-83
2023/07/13 02:04:19;;;;;;;11.55;6.30;;;;;;;21.70;77.03;95025.97;5051333;28;20220;-83
2023/07/13 02:06:45;;;;;;;11.82;5.80;;;;;;;21.80;77.43;95047.34;5033050;28;20280;-84
2023/07/13 02:09:10;;;;;;;11.65;5.78;;;;;;;21.74;77.11;95040.41;5051244;28;20175;-84
2023/07/13 02:11:36;;;;;;;11.73;6.00;;;;;;;21.37;76.42;94983.78;5051013;28;20175;-84
2023/07/13 02:14:02;;;;;;;12.52;7.47;;;;;;;21.84;77.16;95053.78;5050958;28;20226;-84
2023/07/13 02:16:28;;;;;;;13.20;7.43;;;;;;;21.92;77.00;95079.19;5032137;28;20619;-83
2023/07/13 02:18:55;;;;;;;10.45;5.78;;;;;;;21.59;77.14;95024.41;5050961;28;20167;-83
2023/07/13 02:21:21;;;;;;;15.63;7.03;;;;;;;21.92;77.08;95073.03;5051077;28;20179;-84
2023/07/13 02:23:46;;;;;;;10.10;5.65;;;;;;;21.65;76.67;95038.59;5051148;28;20233;-83
2023/07/13 02:26:12;;;;;;;11.00;6.57;;;;;;;21.80;77.25;95074.16;5050749;28;20804;-83
2023/07/13 02:28:37;;;;;;;14.40;6.85;;;;;;;21.87;78.17;95087.28;5051088;28;20187;-84
2023/07/13 02:31:08;;;;;;;27.55;6.35;;;;;;;21.66;77.57;95067.78;5051160;28;20173;-81
2023/07/13 02:33:34;;;;;;;9.77;5.47;;;;;;;21.71;78.09;95083.03;5050207;28;20250;-81
2023/07/13 02:35:59;;;;;;;10.53;6.37;;;;;;;21.67;78.21;95084.69;5051166;28;21265;-81
2023/07/13 02:38:24;;;;;;;11.43;5.68;;;;;;;21.59;77.88;95063.81;5052948;28;20183;-81
2023/07/13 02:40:50;;;;;;;14.85;5.60;;;;;;;21.56;78.13;95056.31;5050616;28;20352;-81
2023/07/13 02:43:15;;;;;;;7.82;5.43;;;;;;;21.78;77.91;95086.25;5050950;28;20175;-81
2023/07/13 02:45:45;;;;;;;11.45;5.32;;;;;;;21.78;78.12;95083.56;5050721;28;20175;-82
2023/07/13 02:48:10;;;;;;;8.93;5.47;;;;;;;21.77;78.21;95085.44;5050778;28;20197;-82
2023/07/13 02:50:35;;;;;;;10.27;5.05;;;;;;;21.67;78.65;95068.59;5050696;28;20179;-82
2023/07/13 02:53:01;;;;;;;8.73;5.45;;;;;;;21.64;78.15;95077.16;5050730;28;20234;-82
2023/07/13 02:55:26;;;;;;;13.93;5.93;;;;;;;21.45;78.81;95059.03;5050624;28;20170;-82
2023/07/13 02:57:51;;;;;;;9.23;5.47;;;;;;;21.56;79.17;95078.53;5050795;28;20163;-82
2023/07/13 03:00:17;;;;;;;11.02;5.70;;;;;;;21.52;79.15;95079.38;5050629;28;20167;-82
2023/07/13 03:02:43;;;;;;;8.30;5.93;;;;;;;21.52;79.75;95087.41;5050681;28;20174;-82
2023/07/13 03:05:10;;;;;;;17.00;6.68;;;;;;;21.54;79.05;95090.59;5050850;28;20554;-82
2023/07/13 03:07:36;;;;;;;19.35;5.95;;;;;;;21.48;79.34;95092.50;5036494;28;20712;-82
2023/07/13 03:10:01;;;;;;;11.82;6.85;;;;;;;21.46;80.16;95087.41;5054238;28;20322;-83
2023/07/13 03:12:27;;;;;;;11.82;6.57;;;;;;;21.53;79.92;95099.75;5036199;28;20194;-82
2023/07/13 03:14:52;;;;;;;12.63;6.40;;;;;;;21.52;79.75;95098.13;5054091;28;20177;-82
2023/07/13 03:17:18;;;;;;;12.82;6.78;;;;;;;21.51;79.71;95091.16;5054124;28;20241;-83
2023/07/13 03:19:43;;;;;;;11.23;6.13;;;;;;;21.51;79.82;95078.56;5054061;28;20194;-83
2023/07/13 03:22:09;;;;;;;16.08;7.75;;;;;;;21.50;79.36;95084.19;5054064;28;20672;-83
2023/07/13 03:24:34;;;;;;;14.75;7.40;;;;;;;21.54;79.46;95091.41;5054043;28;20680;-81
2023/07/13 03:27:02;;;;;;;10.63;6.53;;;;;;;21.57;79.83;95093.56;5053561;28;20199;-81
2023/07/13 03:29:27;;;;;;;18.52;7.13;;;;;;;21.46;79.91;95074.03;5053850;28;20559;-81
2023/07/13 03:31:52;;;;;;;15.70;7.25;;;;;;;21.64;79.93;95093.25;5054155;28;20176;-81
2023/07/13 03:34:18;;;;;;;12.75;7.07;;;;;;;21.70;80.23;95100.22;5053892;28;20630;-81
2023/07/13 03:36:43;;;;;;;16.40;7.32;;;;;;;21.72;80.31;95096.16;5053701;28;20214;-81
2023/07/13 03:39:09;;;;;;;15.07;7.00;;;;;;;21.72;80.30;95084.63;5053461;28;20725;-81
2023/07/13 03:41:35;;;;;;;11.57;7.03;;;;;;;21.96;79.89;95109.75;5053634;28;20545;-80
2023/07/13 03:44:17;;;;;;;16.70;7.50;;;;;;;21.95;79.07;95101.97;5053509;28;20167;-81
2023/07/13 03:46:43;;;;;;;13.80;6.88;;;;;;;21.91;79.20;95108.97;5053223;28;20788;-80
2023/07/13 03:49:09;;;;;;;18.05;7.45;;;;;;;21.98;79.22;95096.06;5053630;28;20254;-81
2023/07/13 03:51:35;;;;;;;15.57;7.10;;;;;;;22.18;79.39;95102.16;5053518;28;20167;-79
2023/07/13 03:54:00;;;;;;;18.38;7.60;;;;;;;22.34;79.24;95108.22;5053510;28;20175;-79
2023/07/13 03:56:26;;;;;;;20.25;7.75;;;;;;;22.51;78.66;95105.16;5053616;28;20171;-78
2023/07/13 03:58:52;;;;;;;15.40;8.15;;;;;;;22.61;76.81;95105.09;5052923;28;20594;-78
2023/07/13 04:01:20;;;;;;;10.73;6.72;;;;;;;22.75;77.41;95105.25;5053622;28;20206;-79
2023/07/13 04:03:46;;;;;;;18.95;8.18;;;;;;;22.86;77.74;95093.38;5053355;28;20254;-79
2023/07/13 04:06:24;;;;;;;19.92;8.00;;;;;;;23.03;77.03;95106.38;5053532;28;20191;-79
2023/07/13 04:08:53;;;;;;;23.50;7.65;;;;;;;23.16;77.26;95097.66;5053036;28;20185;-79
2023/07/13 04:11:20;;;;;;;15.90;7.82;;;;;;;23.33;77.07;95101.53;5053048;28;20159;-78
2023/07/13 04:13:46;;;;;;;20.02;8.20;;;;;;;23.40;74.74;95101.19;5051874;28;20732;-78
2023/07/13 04:16:12;;;;;;;31.23;9.05;;;;;;;23.19;74.27;95059.47;5054620;28;20175;-78
2023/07/13 04:18:38;;;;;;;20.83;7.72;;;;;;;23.53;74.22;95100.53;5032615;28;20179;-80
2023/07/13 04:21:03;;;;;;;18.45;8.32;;;;;;;23.69;75.38;95103.84;5052267;28;20167;-80
2023/07/13 04:23:29;;;;;;;18.10;8.00;;;;;;;23.86;75.22;95101.50;5052637;28;20273;-80
2023/07/13 04:25:54;;;;;;;24.58;8.98;;;;;;;24.14;74.05;95107.84;5052715;28;20699;-80
2023/07/13 04:28:23;;;;;;;16.17;7.88;;;;;;;24.36;74.00;95124.28;5052424;28;20163;-79
2023/07/13 04:30:49;;;;;;;12.18;7.05;;;;;;;24.51;72.53;95112.47;5052751;28;20198;-81
2023/07/13 04:33:16;;;;;;;15.00;6.72;;;;;;;24.66;72.29;95116.81;5052739;28;20266;-81
2023/07/13 04:35:42;;;;;;;13.20;6.97;;;;;;;24.90;72.75;95128.31;5053303;28;20194;-81
2023/07/13 04:38:08;;;;;;;18.75;7.32;;;;;;;25.09;70.88;95130.97;5052839;28;20257;-81
2023/07/13 04:40:34;;;;;;;35.05;15.52;;;;;;;25.29;69.24;95137.94;5052699;28;20221;-81
2023/07/13 04:42:59;;;;;;;14.00;7.10;;;;;;;25.41;68.24;95122.09;5052911;28;20175;-81
2023/07/13 04:45:25;;;;;;;16.70;8.10;;;;;;;25.72;69.34;95133.94;5052605;28;20202;-81
2023/07/13 04:47:50;;;;;;;23.92;16.65;;;;;;;25.86;67.80;95120.41;5052820;28;20203;-81
2023/07/13 04:50:20;;;;;;;26.83;16.02;;;;;;;26.16;66.49;95138.72;5052802;28;20267;-81
2023/07/13 04:52:46;;;;;;;11.57;6.38;;;;;;;26.38;64.53;95137.22;5051711;28;20167;-81
2023/07/13 04:55:11;;;;;;;13.45;6.95;;;;;;;26.51;65.16;95131.78;5051142;28;20316;-81
2023/07/13 04:57:37;;;;;;;20.58;13.02;;;;;;;26.87;64.29;95156.09;5052443;28;20198;-81
2023/07/13 05:00:05;;;;;;;16.20;7.20;;;;;;;27.02;63.29;95138.72;5052372;28;20182;-81
2023/07/13 05:02:31;;;;;;;16.08;6.65;;;;;;;27.42;62.14;95145.81;5052491;28;20664;-81
2023/07/13 05:04:57;;;;;;;26.52;13.50;;;;;;;27.74;60.61;95141.25;5052315;28;20182;-81
2023/07/13 05:07:22;;;;;;;20.80;12.63;;;;;;;28.13;59.75;95152.03;5050922;28;20195;-81
2023/07/13 05:09:48;;;;;;;23.70;11.55;;;;;;;28.36;57.41;95146.56;5034441;28;20175;-81
2023/07/13 05:12:13;;;;;;;18.17;8.48;;;;;;;28.44;57.12;95133.03;5052542;28;20735;-82
2023/07/13 05:14:38;;;;;;;23.38;13.45;;;;;;;28.64;57.19;95133.50;5052255;28;20202;-81
2023/07/13 05:17:04;;;;;;;18.25;7.32;;;;;;;29.01;56.76;95148.38;5052233;28;20262;-81
2023/07/13 05:19:30;;;;;;;29.50;11.80;;;;;;;29.11;55.77;95127.16;5052190;28;20552;-82
2023/07/13 05:21:55;;;;;;;12.15;8.13;;;;;;;29.44;54.76;95122.03;5052072;28;21074;-82
2023/07/13 05:24:21;;;;;;;10.57;6.95;;;;;;;30.00;55.53;95153.47;5052017;28;20641;-81
2023/07/13 05:26:46;;;;;;;16.73;10.07;;;;;;;30.30;53.63;95148.84;5051885;28;20202;-83
2023/07/13 05:29:12;;;;;;;13.13;6.63;;;;;;;30.75;50.82;95161.84;5051030;28;20172;-82
2023/07/13 05:31:37;;;;;;;13.32;9.32;;;;;;;31.21;50.88;95163.59;5051912;28;20228;-82
2023/07/13 05:34:02;;;;;;;27.30;12.07;;;;;;;31.36;49.70;95141.19;5051849;28;20167;-82
2023/07/13 05:36:28;;;;;;;16.88;7.35;;;;;;;31.63;48.20;95152.66;5052334;28;20228;-82
2023/07/13 05:38:53;;;;;;;12.35;7.70;;;;;;;32.00;46.82;95173.34;5051781;28;20630;-82
2023/07/13 05:41:19;;;;;;;11.20;7.43;;;;;;;32.34;46.78;95176.81;5051686;28;20217;-82
2023/07/13 05:43:44;;;;;;;13.13;6.78;;;;;;;32.44;46.79;95149.06;5051596;28;20182;-82
2023/07/13 05:46:09;;;;;;;19.85;8.35;;;;;;;32.67;45.54;95158.38;5033674;28;20586;-83
2023/07/13 05:48:35;;;;;;;16.67;6.78;;;;;;;32.91;44.42;95165.75;5035425;28;20179;-83
2023/07/13 05:51:01;;;;;;;15.75;8.77;;;;;;;33.02;44.82;95168.78;5051672;28;20171;-83
2023/07/13 05:53:27;;;;;;;18.80;10.60;;;;;;;33.17;44.36;95173.50;5051118;28;20650;-82
2023/07/13 05:55:54;;;;;;;16.02;8.15;;;;;;;33.36;46.39;95165.50;5033543;28;20185;-82
2023/07/13 05:58:20;;;;;;;13.68;6.53;;;;;;;33.61;45.87;95169.72;5051426;28;20168;-82
2023/07/13 06:00:48;;;;;;;12.23;7.75;;;;;;;33.30;43.88;95147.75;5051493;28;20293;-83
2023/07/13 06:03:15;;;;;;;18.42;7.50;;;;;;;33.31;44.42;95160.28;5051435;28;20179;-89
2023/07/13 06:05:41;;;;;;;15.38;6.57;;;;;;;33.04;44.96;95153.63;5033077;28;20286;-84
2023/07/13 06:08:09;;;;;;;14.07;6.47;;;;;;;33.09;46.33;95160.81;5051393;28;20262;-84
2023/07/13 06:10:36;;;;;;;17.45;7.30;;;;;;;33.08;45.39;95143.63;5033400;28;20187;-84
2023/07/13 06:13:02;;;;;;;11.40;6.50;;;;;;;33.37;45.38;95158.91;5051491;28;20182;-85
2023/07/13 06:15:27;;;;;;;11.43;6.57;;;;;;;33.37;43.36;95156.19;5051190;28;20179;-81
2023/07/13 06:17:52;;;;;;;11.38;6.90;;;;;;;33.49;43.04;95164.28;5051193;28;20178;-82
2023/07/13 06:20:18;;;;;;;15.20;6.10;;;;;;;33.40;43.31;95157.41;5033045;28;20206;-82
2023/07/13 06:22:43;;;;;;;11.95;6.32;;;;;;;33.54;44.86;95171.47;5033112;28;20647;-82
2023/07/13 06:25:09;;;;;;;9.23;6.05;;;;;;;33.42;44.25;95172.28;5051228;28;20178;-82
2023/07/13 06:27:34;;;;;;;10.48;6.15;;;;;;;33.22;43.74;95163.16;5050844;28;20734;-83
2023/07/13 06:29:59;;;;;;;14.40;6.57;;;;;;;33.36;42.31;95176.44;5051213;28;20167;-82
2023/07/13 06:32:26;;;;;;;11.50;6.70;;;;;;;33.03;42.97;95164.94;5051117;28;20185;-82
2023/07/13 06:34:51;;;;;;;14.05;6.32;;;;;;;33.12;46.04;95174.56;5051080;28;20236;-82
2023/07/13 06:37:17;;;;;;;16.70;7.10;;;;;;;33.21;45.71;95169.75;5051025;28;20238;-82
2023/07/13 06:39:43;;;;;;;13.02;7.30;;;;;;;32.91;44.38;95147.44;5050624;28;20682;-82
2023/07/13 06:42:08;;;;;;;11.60;6.80;;;;;;;32.91;44.60;95154.81;5054526;28;20167;-81
2023/07/13 06:44:33;;;;;;;12.77;6.88;;;;;;;33.00;45.18;95144.56;5054971;28;20635;-81
2023/07/13 06:46:59;;;;;;;13.30;7.00;;;;;;;33.12;44.04;95141.00;5055161;28;20199;-78
2023/07/13 06:49:24;;;;;;;11.73;6.40;;;;;;;33.20;45.26;95162.69;5054933;28;20178;-79
2023/07/13 06:51:50;;;;;;;14.02;8.10;;;;;;;33.24;43.76;95160.88;5037115;28;20171;-79
2023/07/13 06:54:15;;;;;;;14.18;7.03;;;;;;;33.11;45.07;95151.13;5054983;28;20367;-83
2023/07/13 06:56:40;;;;;;;18.58;8.27;;;;;;;33.22;44.51;95148.72;5054781;28;20159;-85
2023/07/13 06:59:06;;;;;;;11.50;6.88;;;;;;;33.46;45.97;95166.94;5055042;28;20296;-82
2023/07/13 07:01:31;;;;;;;15.73;7.60;;;;;;;33.66;45.06;95177.63;5054663;28;20549;-83
2023/07/13 07:03:57;;;;;;;14.75;7.60;;;;;;;33.72;43.60;95175.47;5054754;28;20171;-82
2023/07/13 07:06:23;;;;;;;9.40;6.05;;;;;;;34.00;45.08;95172.66;5036352;28;20288;-81
2023/07/13 07:08:50;;;;;;;13.07;6.30;;;;;;;34.23;43.66;95170.94;5054595;28;20670;-82
2023/07/13 07:11:24;;;;;;;13.10;6.63;;;;;;;34.26;43.03;95163.97;5054536;28;20301;-81
2023/07/13 07:13:53;;;;;;;11.32;6.65;;;;;;;34.36;42.31;95169.69;5053739;28;20191;-82
2023/07/13 07:16:20;;;;;;;14.88;6.95;;;;;;;34.34;42.74;95173.94;5036429;28;20182;-82
2023/07/13 07:18:46;;;;;;;12.68;6.93;;;;;;;34.30;42.74;95162.13;5054496;28;20265;-84
2023/07/13 07:21:12;;;;;;;14.15;7.40;;;;;;;33.83;42.77;95138.28;5054388;28;20190;-85
2023/07/13 07:23:38;;;;;;;13.82;6.93;;;;;;;33.90;42.11;95154.09;5054440;28;20210;-85
2023/07/13 07:26:04;;;;;;;18.05;7.85;;;;;;;33.48;41.65;95142.78;5054285;28;20281;-84
2023/07/13 07:28:29;;;;;;;16.95;6.80;;;;;;;32.98;44.12;95117.63;5054314;28;20546;-84
2023/07/13 07:30:57;;;;;;;12.20;6.95;;;;;;;33.39;44.09;95150.34;5054359;28;20253;-84
2023/07/13 07:33:23;;;;;;;15.90;7.63;;;;;;;33.61;43.49;95144.31;5054251;28;20183;-83
2023/07/13 07:35:49;;;;;;;11.23;6.45;;;;;;;33.70;43.28;95144.97;5054660;28;20189;-83
2023/07/13 07:38:15;;;;;;;13.45;7.82;;;;;;;33.55;42.92;95137.53;5054504;28;20572;-85
2023/07/13 07:40:41;;;;;;;14.98;7.03;;;;;;;33.56;42.82;95142.63;5053634;28;20230;-84
2023/07/13 07:43:07;;;;;;;10.65;6.68;;;;;;;33.96;46.72;95148.00;5035569;28;20183;-84
2023/07/13 07:45:33;;;;;;;15.48;6.68;;;;;;;34.15;41.17;95135.56;5047525;28;20239;-85
2023/07/13 07:47:59;;;;;;;13.30;6.82;;;;;;;34.11;43.89;95099.13;5030812;28;20203;-84
2023/07/13 07:50:28;;;;;;;12.15;7.53;;;;;;;34.42;43.62;95138.19;5053927;28;20653;-83
2023/07/13 07:52:55;;;;;;;18.48;7.93;;;;;;;34.14;43.34;95126.56;5052633;28;20590;-86
2023/07/13 07:55:21;;;;;;;12.88;7.50;;;;;;;34.05;44.90;95090.44;5035826;28;20171;-83
2023/07/13 07:57:47;;;;;;;14.52;7.18;;;;;;;34.32;41.41;95121.56;5035667;28;20220;-83
2023/07/13 08:00:13;;;;;;;15.27;7.10;;;;;;;34.04;43.49;95122.44;5053675;28;20175;-83
2023/07/13 08:02:41;;;;;;;16.52;7.32;;;;;;;34.12;41.39;95106.19;5053542;28;20179;-83
2023/07/13 08:05:07;;;;;;;13.88;7.65;;;;;;;34.19;42.40;95112.63;5053713;28;20337;-84
2023/07/13 08:07:33;;;;;;;13.30;6.32;;;;;;;33.82;43.21;95114.06;5053466;28;20198;-83
2023/07/13 08:09:59;;;;;;;11.45;6.13;;;;;;;33.91;42.67;95098.25;5053425;28;20167;-83
2023/07/13 08:12:24;;;;;;;12.57;6.70;;;;;;;33.90;43.25;95113.09;5053302;28;20270;-81
2023/07/13 08:14:53;;;;;;;11.10;7.82;;;;;;;33.79;41.40;95090.19;5053269;28;20163;-81
2023/07/13 08:17:23;;;;;;;8.20;5.43;;;;;;;33.86;41.40;95099.34;5053039;28;20199;-81
2023/07/13 08:19:48;;;;;;;13.82;6.63;;;;;;;34.13;44.41;95094.91;5051388;28;20175;-82
2023/07/13 08:22:14;;;;;;;8.18;5.93;;;;;;;34.31;41.58;95098.88;5033579;28;20560;-82
2023/07/13 08:24:39;;;;;;;15.93;6.50;;;;;;;34.43;44.34;95090.53;5053113;28;20171;-83
2023/07/13 08:27:05;;;;;;;13.00;5.93;;;;;;;34.69;45.04;95081.72;5053020;28;20224;-83
2023/07/13 08:29:33;;;;;;;13.30;7.20;;;;;;;34.64;41.91;95057.41;5053161;28;20288;-85
2023/07/13 08:31:59;;;;;;;14.63;6.90;;;;;;;34.76;40.96;95079.19;5043970;28;20179;-82
2023/07/13 08:34:24;;;;;;;14.30;6.72;;;;;;;34.78;41.93;95076.88;5053026;28;20195;-82
2023/07/13 08:36:49;;;;;;;12.15;6.25;;;;;;;34.87;42.17;95084.84;5053025;28;20178;-84
2023/07/13 08:39:15;;;;;;;11.48;6.15;;;;;;;34.65;43.11;95074.59;5044725;28;20709;-81
2023/07/13 08:41:40;;;;;;;13.18;5.90;;;;;;;34.49;40.48;95082.06;5053531;28;20186;-84
2023/07/13 08:44:20;;;;;;;8.10;5.50;;;;;;;34.06;40.43;95079.16;5052991;28;20670;-83
2023/07/13 08:46:47;;;;;;;11.70;5.68;;;;;;;33.76;42.44;95045.22;5047074;28;20191;-89
2023/07/13 08:49:17;;;;;;;13.90;6.40;;;;;;;33.98;41.38;95071.13;5048375;28;20206;-86
2023/07/13 08:51:55;;;;;;;12.23;7.75;;;;;;;33.86;44.43;95052.88;5052498;28;20312;-81
2023/07/13 08:54:44;;;;;;;12.38;6.97;;;;;;;34.14;46.32;95071.09;5048247;28;20179;-87
2023/07/13 08:57:20;;;;;;;10.43;6.55;;;;;;;34.27;42.67;95086.25;5029517;28;20269;-85
2023/07/13 08:59:46;;;;;;;19.40;6.22;;;;;;;34.29;44.61;95090.22;5023391;28;20183;-87
2023/07/13 09:02:26;;;;;;;10.80;6.35;;;;;;;34.50;45.60;95097.34;5041641;28;20168;-86
2023/07/13 09:05:10;;;;;;;18.20;8.20;;;;;;;34.61;44.83;95107.34;5042384;28;20178;-83
2023/07/13 09:07:57;;;;;;;15.40;6.38;;;;;;;34.56;43.35;95112.31;5050105;28;20195;-85
2023/07/13 09:10:56;;;;;;;10.98;6.35;;;;;;;34.51;41.97;95104.41;5050563;28;20759;-80
2023/07/13 09:13:41;;;;;;;13.07;6.57;;;;;;;34.55;43.99;95111.53;5049824;28;20191;-80
2023/07/13 09:16:09;;;;;;;13.10;7.57;;;;;;;34.49;43.19;95107.50;5049949;28;20179;-83
2023/07/13 09:18:47;;;;;;;20.95;7.47;;;;;;;34.38;45.90;95104.50;5046793;28;20171;-84
2023/07/13 09:21:20;;;;;;;15.68;9.18;;;;;;;34.23;45.62;95096.31;5049406;28;20209;-80
2023/07/13 09:23:47;;;;;;;12.40;6.50;;;;;;;34.29;42.76;95112.09;5049058;28;20246;-82
2023/07/13 09:26:17;;;;;;;13.13;7.15;;;;;;;34.35;43.30;95115.34;5049364;28;20713;-81
2023/07/13 09:28:45;;;;;;;12.13;6.90;;;;;;;34.24;42.67;95101.47;5051190;28;20175;-81
2023/07/13 09:31:15;;;;;;;12.68;6.28;;;;;;;34.30;45.56;95110.16;5051498;28;20324;-80
2023/07/13 09:33:42;;;;;;;8.07;6.25;;;;;;;34.36;45.29;95103.28;5031098;28;20205;-81
2023/07/13 09:36:27;;;;;;;20.02;6.30;;;;;;;34.38;40.74;95104.50;5034101;28;20197;-81
2023/07/13 09:39:07;;;;;;;13.90;6.15;;;;;;;34.33;45.05;95099.31;5033243;28;20560;-82
2023/07/13 09:42:03;;;;;;;13.25;5.93;;;;;;;34.39;44.59;95099.84;5048109;28;20175;-81
2023/07/13 09:44:34;;;;;;;10.23;4.40;;;;;;;34.36;40.27;95089.59;5046197;28;20225;-82
2023/07/13 09:46:59;;;;;;;10.60;4.40;;;;;;;34.35;41.91;95079.81;5046792;28;20230;-81
2023/07/13 09:49:27;;;;;;;5.97;4.03;;;;;;;34.44;40.19;95070.25;5051300;28;20199;-81
2023/07/13 09:52:06;;;;;;;10.80;4.82;;;;;;;34.64;34.65;95081.22;5051532;28;20186;-84
2023/07/13 09:54:36;;;;;;;8.68;3.92;;;;;;;34.53;33.74;95066.53;5043665;28;20159;-83
2023/07/13 09:57:02;;;;;;;8.07;3.88;;;;;;;34.47;37.31;95071.50;5048746;28;20528;-81
2023/07/13 09:59:40;;;;;;;8.27;4.03;;;;;;;34.42;37.18;95055.38;5033569;28;20699;-81
2023/07/13 10:02:35;;;;;;;6.65;4.57;;;;;;;34.55;37.12;95067.75;5050293;28;20606;-83
2023/07/13 10:05:00;;;;;;;8.80;4.55;;;;;;;34.61;35.68;95068.25;5050297;28;20166;-84
2023/07/13 10:07:27;;;;;;;5.10;3.42;;;;;;;34.55;36.07;95042.34;5033016;28;20677;-85
2023/07/13 10:09:57;;;;;;;14.63;4.88;;;;;;;34.54;39.13;95055.22;5050524;28;20249;-80
2023/07/13 10:12:24;;;;;;;13.18;4.80;;;;;;;34.60;38.82;95051.03;5049640;28;20176;-83
2023/07/13 10:14:58;;;;;;;9.35;4.18;;;;;;;34.67;39.04;95047.69;5031876;28;20171;-82
2023/07/13 10:17:32;;;;;;;11.63;4.95;;;;;;;34.73;37.66;95063.47;5047122;28;20205;-83
2023/07/13 10:20:04;;;;;;;8.55;4.55;;;;;;;34.76;39.15;95054.56;5048838;28;20174;-83
2023/07/13 10:22:49;;;;;;;7.22;4.00;;;;;;;34.78;36.81;95054.19;5050140;28;20213;-84
2023/07/13 10:25:22;;;;;;;11.23;4.53;;;;;;;34.83;38.68;95053.13;5033228;28;20163;-85
2023/07/13 10:27:50;;;;;;;7.65;4.57;;;;;;;34.89;38.50;95040.72;5047171;28;20203;-84
2023/07/13 10:30:25;;;;;;;5.80;3.88;;;;;;;34.80;39.58;95055.41;5051089;28;20265;-86
2023/07/13 10:32:52;;;;;;;9.15;3.83;;;;;;;34.74;35.89;95029.50;5047022;28;20162;-84
2023/07/13 10:35:20;;;;;;;14.45;4.15;;;;;;;34.68;36.47;95030.13;5050995;28;20178;-85
2023/07/13 10:37:54;;;;;;;9.82;4.25;;;;;;;34.72;36.59;95034.50;5050619;28;20175;-82
2023/07/13 10:41:06;;;;;;;6.53;4.20;;;;;;;34.68;36.79;95036.34;5049231;28;20704;-86
2023/07/13 10:43:41;;;;;;;14.45;4.72;;;;;;;34.75;36.73;95031.09;5048389;28;20194;-90
2023/07/13 10:46:10;;;;;;;13.82;3.80;;;;;;;34.79;36.84;95034.66;5047340;28;20250;-83
2023/07/13 10:48:38;;;;;;;19.48;4.28;;;;;;;34.64;34.57;95007.34;5050760;28;20175;-87
2023/07/13 10:51:06;;;;;;;10.90;4.00;;;;;;;34.72;35.14;95020.81;5047970;28;20171;-86
2023/07/13 10:53:36;;;;;;;10.48;3.95;;;;;;;34.70;34.76;95017.66;5050537;28;20177;-88
2023/07/13 10:56:05;;;;;;;6.30;3.65;;;;;;;34.70;36.45;95012.16;5030545;28;20213;-81
2023/07/13 10:58:39;;;;;;;9.95;3.80;;;;;;;34.73;37.36;94999.72;5049385;28;20173;-88
2023/07/13 11:01:11;;;;;;;8.23;4.05;;;;;;;34.52;36.11;94961.00;5029328;28;20173;-89
2023/07/13 11:03:43;;;;;;;8.25;4.18;;;;;;;34.83;37.15;95001.13;5030415;28;20658;-87
2023/07/13 11:06:39;;;;;;;13.95;4.18;;;;;;;34.85;36.59;94996.06;5032394;28;20229;-86
2023/07/13 11:09:36;;;;;;;15.85;4.50;;;;;;;34.84;36.05;95000.75;5049784;28;20164;-85
2023/07/13 11:12:06;;;;;;;8.10;3.70;;;;;;;34.73;36.70;94973.19;5049732;28;20171;-85
2023/07/13 11:15:04;;;;;;;10.02;4.88;;;;;;;34.63;35.33;94981.16;5049481;28;20667;-84
2023/07/13 11:17:29;;;;;;;7.80;3.88;;;;;;;34.66;35.10;94981.22;5050079;28;20202;-84
2023/07/13 11:20:11;;;;;;;10.45;4.72;;;;;;;34.64;36.01;94969.84;5050320;28;20605;-83
2023/07/13 11:23:08;;;;;;;7.35;4.03;;;;;;;34.57;31.93;94977.91;5049116;28;20217;-85
2023/07/13 11:25:37;;;;;;;8.70;4.20;;;;;;;34.65;37.40;94981.59;5048010;28;20230;-84
2023/07/13 11:28:11;;;;;;;11.13;4.40;;;;;;;34.72;40.52;94981.72;5051946;28;20717;-85
2023/07/13 11:30:49;;;;;;;8.43;3.95;;;;;;;34.70;35.60;94971.13;5052298;28;20170;-84
2023/07/13 11:33:15;;;;;;;15.68;4.25;;;;;;;34.70;34.26;94981.28;5052002;28;20221;-85